sensor_id;sensor_type;location;lat;lon;timestamp;pressure;altitude;pressure_sealevel;temperature;humidity
71306;BME280;59097;46.858;18.632;2023-03-26T00:01:52;100013.13;;;7.86;84.28
71306;BME280;59097;46.858;18.632;2023-03-26T00:04:21;99999.09;;;7.71;84.81
71306;BME280;59097;46.858;18.632;2023-03-26T00:06:51;100002.16;;;7.59;85.42
71306;BME280;59097;46.858;18.632;2023-03-26T00:09:21;100016.09;;;7.68;84.14
71306;BME280;59097;46.858;18.632;2023-03-26T00:11:48;100015.56;;;7.58;85.51
71306;BME280;59097;46.858;18.632;2023-03-26T00:14:16;100014.25;;;7.54;86.33
71306;BME280;59097;46.858;18.632;2023-03-26T00:16:45;100014.88;;;7.41;86.40
71306;BME280;59097;46.858;18.632;2023-03-26T00:19:14;100003.16;;;7.21;87.35
71306;BME280;59097;46.858;18.632;2023-03-26T00:21:42;100017.94;;;7.30;87.51
71306;BME280;59097;46.858;18.632;2023-03-26T00:24:12;100015.94;;;7.32;87.75
71306;BME280;59097;46.858;18.632;2023-03-26T00:26:44;99993.56;;;7.06;88.06
71306;BME280;59097;46.858;18.632;2023-03-26T00:29:16;100023.81;;;7.18;88.46
71306;BME280;59097;46.858;18.632;2023-03-26T00:31:45;100009.22;;;7.07;89.29
71306;BME280;59097;46.858;18.632;2023-03-26T00:34:13;100015.12;;;7.09;88.52
71306;BME280;59097;46.858;18.632;2023-03-26T00:36:45;100011.03;;;7.07;88.53
71306;BME280;59097;46.858;18.632;2023-03-26T00:39:14;99999.91;;;6.96;89.90
71306;BME280;59097;46.858;18.632;2023-03-26T00:41:44;99998.38;;;6.79;90.26
71306;BME280;59097;46.858;18.632;2023-03-26T00:44:12;100005.00;;;6.75;90.88
71306;BME280;59097;46.858;18.632;2023-03-26T00:46:40;99998.25;;;6.73;91.34
71306;BME280;59097;46.858;18.632;2023-03-26T00:49:09;100000.00;;;6.58;92.39
71306;BME280;59097;46.858;18.632;2023-03-26T00:51:41;100008.22;;;6.55;93.40
71306;BME280;59097;46.858;18.632;2023-03-26T00:54:10;100007.47;;;6.46;93.60
71306;BME280;59097;46.858;18.632;2023-03-26T00:56:38;100003.56;;;6.34;95.29
71306;BME280;59097;46.858;18.632;2023-03-26T00:59:07;100003.59;;;6.26;95.13
71306;BME280;59097;46.858;18.632;2023-03-26T01:01:35;100004.28;;;6.20;95.18
71306;BME280;59097;46.858;18.632;2023-03-26T01:04:41;100006.78;;;6.13;95.96
71306;BME280;59097;46.858;18.632;2023-03-26T01:07:14;99998.09;;;6.05;96.38
71306;BME280;59097;46.858;18.632;2023-03-26T01:09:50;99992.69;;;5.98;95.98
71306;BME280;59097;46.858;18.632;2023-03-26T01:12:21;100005.91;;;5.90;96.15
71306;BME280;59097;46.858;18.632;2023-03-26T01:14:51;100000.63;;;5.90;97.43
71306;BME280;59097;46.858;18.632;2023-03-26T01:17:20;99998.47;;;5.86;97.27
71306;BME280;59097;46.858;18.632;2023-03-26T01:20:08;99989.91;;;5.84;97.04
71306;BME280;59097;46.858;18.632;2023-03-26T01:22:46;99988.56;;;5.96;97.19
71306;BME280;59097;46.858;18.632;2023-03-26T01:25:16;99992.69;;;5.98;97.17
71306;BME280;59097;46.858;18.632;2023-03-26T01:27:53;99976.25;;;5.96;96.60
71306;BME280;59097;46.858;18.632;2023-03-26T01:30:37;100005.53;;;5.85;97.27
71306;BME280;59097;46.858;18.632;2023-03-26T01:35:57;100002.41;;;5.82;97.47
71306;BME280;59097;46.858;18.632;2023-03-26T01:38:42;99988.75;;;5.78;98.12
71306;BME280;59097;46.858;18.632;2023-03-26T01:44:56;99998.84;;;5.66;98.01
71306;BME280;59097;46.858;18.632;2023-03-26T01:47:26;100003.94;;;5.60;98.11
71306;BME280;59097;46.858;18.632;2023-03-26T01:49:55;100002.94;;;5.69;98.99
71306;BME280;59097;46.858;18.632;2023-03-26T01:52:24;100008.03;;;5.62;98.50
71306;BME280;59097;46.858;18.632;2023-03-26T01:54:53;100000.97;;;5.55;98.53
71306;BME280;59097;46.858;18.632;2023-03-26T01:57:34;100007.72;;;5.57;98.63
71306;BME280;59097;46.858;18.632;2023-03-26T02:08:22;99999.31;;;5.70;100.00
71306;BME280;59097;46.858;18.632;2023-03-26T02:10:56;99997.19;;;5.65;100.00
71306;BME280;59097;46.858;18.632;2023-03-26T02:13:26;99992.44;;;5.61;100.00
71306;BME280;59097;46.858;18.632;2023-03-26T02:16:00;99995.72;;;5.55;100.00
71306;BME280;59097;46.858;18.632;2023-03-26T02:18:28;99975.38;;;5.49;100.00
71306;BME280;59097;46.858;18.632;2023-03-26T02:21:15;99992.44;;;5.53;100.00
71306;BME280;59097;46.858;18.632;2023-03-26T02:23:49;99982.56;;;5.47;100.00
71306;BME280;59097;46.858;18.632;2023-03-26T02:26:24;99989.50;;;5.48;100.00
71306;BME280;59097;46.858;18.632;2023-03-26T02:28:53;99973.06;;;5.38;100.00
71306;BME280;59097;46.858;18.632;2023-03-26T02:31:21;99981.59;;;5.48;100.00
71306;BME280;59097;46.858;18.632;2023-03-26T02:33:53;99985.56;;;5.44;100.00
71306;BME280;59097;46.858;18.632;2023-03-26T02:36:22;99985.22;;;5.47;100.00
71306;BME280;59097;46.858;18.632;2023-03-26T02:38:57;99979.81;;;5.48;100.00
71306;BME280;59097;46.858;18.632;2023-03-26T02:41:27;99935.31;;;5.23;100.00
71306;BME280;59097;46.858;18.632;2023-03-26T02:43:55;99974.88;;;5.45;100.00
71306;BME280;59097;46.858;18.632;2023-03-26T02:46:24;99969.28;;;5.40;100.00
71306;BME280;59097;46.858;18.632;2023-03-26T02:48:53;99977.50;;;5.37;100.00
71306;BME280;59097;46.858;18.632;2023-03-26T02:51:21;99967.66;;;5.31;100.00
71306;BME280;59097;46.858;18.632;2023-03-26T02:53:50;99970.94;;;5.25;100.00
71306;BME280;59097;46.858;18.632;2023-03-26T02:56:21;99981.81;;;4.90;100.00
71306;BME280;59097;46.858;18.632;2023-03-26T02:58:50;99981.97;;;4.80;100.00
71306;BME280;59097;46.858;18.632;2023-03-26T03:01:18;99986.72;;;4.77;100.00
71306;BME280;59097;46.858;18.632;2023-03-26T03:03:47;99974.88;;;4.65;100.00
71306;BME280;59097;46.858;18.632;2023-03-26T03:06:17;99927.97;;;4.12;100.00
71306;BME280;59097;46.858;18.632;2023-03-26T03:08:45;99978.59;;;4.46;100.00
71306;BME280;59097;46.858;18.632;2023-03-26T03:11:18;99983.19;;;4.44;100.00
71306;BME280;59097;46.858;18.632;2023-03-26T03:13:52;99978.72;;;4.28;100.00
71306;BME280;59097;46.858;18.632;2023-03-26T03:16:20;99971.66;;;4.21;100.00
71306;BME280;59097;46.858;18.632;2023-03-26T03:18:49;99976.25;;;4.19;100.00
71306;BME280;59097;46.858;18.632;2023-03-26T03:21:23;99979.19;;;4.16;100.00
71306;BME280;59097;46.858;18.632;2023-03-26T03:23:55;99979.41;;;3.97;100.00
71306;BME280;59097;46.858;18.632;2023-03-26T03:26:27;99982.06;;;4.05;100.00
71306;BME280;59097;46.858;18.632;2023-03-26T03:28:57;99959.72;;;3.93;100.00
71306;BME280;59097;46.858;18.632;2023-03-26T03:31:25;99973.34;;;3.96;100.00
71306;BME280;59097;46.858;18.632;2023-03-26T03:33:55;99983.22;;;4.02;100.00
71306;BME280;59097;46.858;18.632;2023-03-26T03:36:23;99988.09;;;3.97;100.00
71306;BME280;59097;46.858;18.632;2023-03-26T03:38:55;99939.87;;;3.56;100.00
71306;BME280;59097;46.858;18.632;2023-03-26T03:41:29;99961.91;;;3.71;100.00
71306;BME280;59097;46.858;18.632;2023-03-26T03:43:57;99987.53;;;3.77;100.00
71306;BME280;59097;46.858;18.632;2023-03-26T03:46:26;99991.69;;;3.88;100.00
71306;BME280;59097;46.858;18.632;2023-03-26T03:48:55;99973.47;;;3.87;100.00
71306;BME280;59097;46.858;18.632;2023-03-26T03:51:23;99987.94;;;3.91;100.00
71306;BME280;59097;46.858;18.632;2023-03-26T03:53:52;99978.06;;;3.85;100.00
71306;BME280;59097;46.858;18.632;2023-03-26T03:56:24;99990.72;;;3.97;100.00
71306;BME280;59097;46.858;18.632;2023-03-26T03:58:54;99941.59;;;3.73;100.00
71306;BME280;59097;46.858;18.632;2023-03-26T04:01:26;99953.56;;;3.76;100.00
71306;BME280;59097;46.858;18.632;2023-03-26T04:03:58;99993.34;;;3.97;100.00
71306;BME280;59097;46.858;18.632;2023-03-26T04:06:27;99970.69;;;3.88;100.00
71306;BME280;59097;46.858;18.632;2023-03-26T04:08:56;99989.44;;;4.01;100.00
71306;BME280;59097;46.858;18.632;2023-03-26T04:11:25;99979.63;;;4.03;100.00
71306;BME280;59097;46.858;18.632;2023-03-26T04:13:55;99970.06;;;3.94;100.00
71306;BME280;59097;46.858;18.632;2023-03-26T04:16:24;99993.56;;;4.12;100.00
71306;BME280;59097;46.858;18.632;2023-03-26T04:18:52;99991.78;;;4.12;100.00
71306;BME280;59097;46.858;18.632;2023-03-26T04:21:21;99937.06;;;3.83;100.00
71306;BME280;59097;46.858;18.632;2023-03-26T04:23:49;99986.69;;;4.11;100.00
71306;BME280;59097;46.858;18.632;2023-03-26T04:26:18;99988.03;;;4.15;100.00
71306;BME280;59097;46.858;18.632;2023-03-26T04:28:52;99982.50;;;4.26;100.00
71306;BME280;59097;46.858;18.632;2023-03-26T04:31:24;99966.53;;;4.11;100.00
71306;BME280;59097;46.858;18.632;2023-03-26T04:34:02;99984.16;;;4.35;100.00
71306;BME280;59097;46.858;18.632;2023-03-26T04:36:33;99985.66;;;4.04;100.00
71306;BME280;59097;46.858;18.632;2023-03-26T04:39:02;99993.25;;;3.81;100.00
71306;BME280;59097;46.858;18.632;2023-03-26T04:41:34;99994.00;;;3.65;100.00
71306;BME280;59097;46.858;18.632;2023-03-26T04:44:02;99998.09;;;3.68;100.00
71306;BME280;59097;46.858;18.632;2023-03-26T04:46:31;100003.69;;;3.39;100.00
71306;BME280;59097;46.858;18.632;2023-03-26T04:49:00;99951.16;;;3.23;100.00
71306;BME280;59097;46.858;18.632;2023-03-26T04:51:35;100013.87;;;3.42;100.00
71306;BME280;59097;46.858;18.632;2023-03-26T04:54:15;99995.59;;;3.33;100.00
71306;BME280;59097;46.858;18.632;2023-03-26T04:56:51;100012.41;;;3.48;100.00
71306;BME280;59097;46.858;18.632;2023-03-26T04:59:26;100006.75;;;3.35;100.00
71306;BME280;59097;46.858;18.632;2023-03-26T05:01:57;100015.97;;;3.21;100.00
71306;BME280;59097;46.858;18.632;2023-03-26T05:04:27;100010.44;;;3.24;100.00
71306;BME280;59097;46.858;18.632;2023-03-26T05:07:01;100004.84;;;3.19;100.00
71306;BME280;59097;46.858;18.632;2023-03-26T05:09:30;100015.22;;;3.29;100.00
71306;BME280;59097;46.858;18.632;2023-03-26T05:12:00;100012.00;;;3.35;100.00
71306;BME280;59097;46.858;18.632;2023-03-26T05:14:31;100010.59;;;3.48;100.00
71306;BME280;59097;46.858;18.632;2023-03-26T05:17:01;100011.69;;;3.63;100.00
71306;BME280;59097;46.858;18.632;2023-03-26T05:19:32;99975.50;;;3.67;100.00
71306;BME280;59097;46.858;18.632;2023-03-26T05:22:01;99989.19;;;3.87;100.00
71306;BME280;59097;46.858;18.632;2023-03-26T05:24:31;99995.16;;;3.97;100.00
71306;BME280;59097;46.858;18.632;2023-03-26T05:26:59;100003.72;;;4.07;100.00
71306;BME280;59097;46.858;18.632;2023-03-26T05:29:28;100002.09;;;4.06;100.00
71306;BME280;59097;46.858;18.632;2023-03-26T05:31:56;100005.22;;;4.09;100.00
71306;BME280;59097;46.858;18.632;2023-03-26T05:34:24;100001.09;;;4.07;100.00
71306;BME280;59097;46.858;18.632;2023-03-26T05:36:54;99973.41;;;4.12;100.00
71306;BME280;59097;46.858;18.632;2023-03-26T05:39:22;100002.44;;;4.69;100.00
71306;BME280;59097;46.858;18.632;2023-03-26T05:41:54;99997.72;;;5.04;100.00
71306;BME280;59097;46.858;18.632;2023-03-26T05:44:24;100003.97;;;5.20;100.00
71306;BME280;59097;46.858;18.632;2023-03-26T05:46:52;99993.41;;;5.52;100.00
71306;BME280;59097;46.858;18.632;2023-03-26T05:49:20;99992.41;;;5.69;100.00
71306;BME280;59097;46.858;18.632;2023-03-26T05:51:49;99994.97;;;6.09;100.00
71306;BME280;59097;46.858;18.632;2023-03-26T05:54:17;99955.22;;;6.27;100.00
71306;BME280;59097;46.858;18.632;2023-03-26T05:56:57;99985.25;;;6.71;100.00
71306;BME280;59097;46.858;18.632;2023-03-26T05:59:30;99999.78;;;6.90;100.00
71306;BME280;59097;46.858;18.632;2023-03-26T06:02:00;100003.75;;;7.31;100.00
71306;BME280;59097;46.858;18.632;2023-03-26T06:04:30;100001.94;;;7.46;100.00
71306;BME280;59097;46.858;18.632;2023-03-26T06:06:58;100008.94;;;7.39;100.00
71306;BME280;59097;46.858;18.632;2023-03-26T06:09:28;99990.53;;;7.69;100.00
71306;BME280;59097;46.858;18.632;2023-03-26T06:11:57;100011.22;;;8.09;100.00
71306;BME280;59097;46.858;18.632;2023-03-26T06:14:25;100011.38;;;7.64;100.00
71306;BME280;59097;46.858;18.632;2023-03-26T06:16:56;100012.84;;;7.95;100.00
71306;BME280;59097;46.858;18.632;2023-03-26T06:19:24;99989.34;;;7.86;100.00
71306;BME280;59097;46.858;18.632;2023-03-26T06:21:53;100013.75;;;7.73;100.00
71306;BME280;59097;46.858;18.632;2023-03-26T06:24:21;100016.00;;;7.61;100.00
71306;BME280;59097;46.858;18.632;2023-03-26T06:26:49;100016.13;;;7.97;100.00
71306;BME280;59097;46.858;18.632;2023-03-26T06:29:18;100011.69;;;8.12;100.00
71306;BME280;59097;46.858;18.632;2023-03-26T06:31:46;100023.41;;;8.10;100.00
71306;BME280;59097;46.858;18.632;2023-03-26T06:34:17;100015.66;;;8.08;100.00
71306;BME280;59097;46.858;18.632;2023-03-26T06:36:46;100017.22;;;7.88;100.00
71306;BME280;59097;46.858;18.632;2023-03-26T06:39:15;100020.56;;;7.68;100.00
71306;BME280;59097;46.858;18.632;2023-03-26T06:41:44;100022.94;;;7.77;100.00
71306;BME280;59097;46.858;18.632;2023-03-26T06:44:13;100006.75;;;8.09;100.00
71306;BME280;59097;46.858;18.632;2023-03-26T06:46:43;99981.16;;;7.95;100.00
71306;BME280;59097;46.858;18.632;2023-03-26T06:49:12;99997.88;;;8.46;100.00
71306;BME280;59097;46.858;18.632;2023-03-26T06:51:41;99950.44;;;8.38;100.00
71306;BME280;59097;46.858;18.632;2023-03-26T06:54:10;100013.31;;;9.00;99.12
71306;BME280;59097;46.858;18.632;2023-03-26T06:56:40;100014.97;;;9.01;98.39
71306;BME280;59097;46.858;18.632;2023-03-26T06:59:10;100010.22;;;9.17;97.43
71306;BME280;59097;46.858;18.632;2023-03-26T07:01:50;99983.47;;;9.27;96.88
71306;BME280;59097;46.858;18.632;2023-03-26T07:04:34;100010.41;;;9.37;96.38
71306;BME280;59097;46.858;18.632;2023-03-26T07:07:26;100008.25;;;9.75;96.03
71306;BME280;59097;46.858;18.632;2023-03-26T07:09:57;100016.28;;;10.16;95.21
71306;BME280;59097;46.858;18.632;2023-03-26T07:12:26;100002.56;;;10.53;93.55
71306;BME280;59097;46.858;18.632;2023-03-26T07:14:54;100014.00;;;10.53;91.25
71306;BME280;59097;46.858;18.632;2023-03-26T07:17:25;100017.31;;;10.62;92.12
71306;BME280;59097;46.858;18.632;2023-03-26T07:19:54;100020.78;;;10.69;91.88
71306;BME280;59097;46.858;18.632;2023-03-26T07:22:23;100010.00;;;10.77;89.86
71306;BME280;59097;46.858;18.632;2023-03-26T07:24:54;99999.22;;;10.92;90.50
71306;BME280;59097;46.858;18.632;2023-03-26T07:30:45;100017.63;;;11.19;88.24
71306;BME280;59097;46.858;18.632;2023-03-26T07:39:34;100009.28;;;11.29;86.71
71306;BME280;59097;46.858;18.632;2023-03-26T07:45:39;100004.97;;;11.34;84.09
71306;BME280;59097;46.858;18.632;2023-03-26T07:48:16;100005.41;;;11.45;84.93
71306;BME280;59097;46.858;18.632;2023-03-26T07:50:46;100005.81;;;11.42;84.14
71306;BME280;59097;46.858;18.632;2023-03-26T07:53:17;100010.09;;;11.49;85.14
71306;BME280;59097;46.858;18.632;2023-03-26T08:07:51;99992.44;;;12.20;82.09
71306;BME280;59097;46.858;18.632;2023-03-26T08:13:02;99973.41;;;12.99;78.95
71306;BME280;59097;46.858;18.632;2023-03-26T08:18:40;99967.59;;;13.15;74.06
71306;BME280;59097;46.858;18.632;2023-03-26T08:31:56;99963.06;;;15.38;69.91
71306;BME280;59097;46.858;18.632;2023-03-26T08:34:24;99962.66;;;15.53;66.98
71306;BME280;59097;46.858;18.632;2023-03-26T08:36:52;99933.31;;;16.04;61.53
71306;BME280;59097;46.858;18.632;2023-03-26T08:39:21;99950.84;;;15.31;62.68
71306;BME280;59097;46.858;18.632;2023-03-26T08:42:03;99918.38;;;14.81;64.16
71306;BME280;59097;46.858;18.632;2023-03-26T09:22:27;99908.63;;;14.86;57.53
71306;BME280;59097;46.858;18.632;2023-03-26T09:25:24;99904.88;;;15.63;57.37
71306;BME280;59097;46.858;18.632;2023-03-26T09:33:54;99895.28;;;19.25;45.96
71306;BME280;59097;46.858;18.632;2023-03-26T09:36:54;99886.50;;;19.87;45.21
71306;BME280;59097;46.858;18.632;2023-03-26T09:39:31;99888.75;;;20.05;44.33
71306;BME280;59097;46.858;18.632;2023-03-26T09:56:01;99865.00;;;16.13;56.71
71306;BME280;59097;46.858;18.632;2023-03-26T10:09:14;99838.84;;;15.64;55.26
71306;BME280;59097;46.858;18.632;2023-03-26T10:14:41;99827.16;;;15.93;57.17
71306;BME280;59097;46.858;18.632;2023-03-26T10:17:29;99813.88;;;15.98;55.80
71306;BME280;59097;46.858;18.632;2023-03-26T10:26:17;99801.06;;;16.28;50.56
71306;BME280;59097;46.858;18.632;2023-03-26T10:28:59;99789.88;;;16.31;47.66
71306;BME280;59097;46.858;18.632;2023-03-26T10:31:35;99797.25;;;16.41;48.64
71306;BME280;59097;46.858;18.632;2023-03-26T10:34:47;99790.13;;;16.47;50.97
71306;BME280;59097;46.858;18.632;2023-03-26T10:46:11;99766.44;;;17.05;50.73
71306;BME280;59097;46.858;18.632;2023-03-26T10:49:26;99763.69;;;17.00;43.99
71306;BME280;59097;46.858;18.632;2023-03-26T10:51:57;99757.47;;;16.78;45.73
71306;BME280;59097;46.858;18.632;2023-03-26T10:59:57;99748.22;;;17.07;45.10
71306;BME280;59097;46.858;18.632;2023-03-26T11:02:42;99740.91;;;16.64;43.95
71306;BME280;59097;46.858;18.632;2023-03-26T11:05:55;99736.06;;;16.99;42.87
71306;BME280;59097;46.858;18.632;2023-03-26T11:19:34;99703.41;;;17.19;37.56
71306;BME280;59097;46.858;18.632;2023-03-26T11:33:05;99679.31;;;17.46;38.02
71306;BME280;59097;46.858;18.632;2023-03-26T11:35:36;99661.84;;;17.43;37.59
71306;BME280;59097;46.858;18.632;2023-03-26T11:38:15;99684.03;;;17.60;37.90
71306;BME280;59097;46.858;18.632;2023-03-26T11:40:48;99668.50;;;17.57;37.29
71306;BME280;59097;46.858;18.632;2023-03-26T11:43:23;99660.50;;;17.63;35.97
71306;BME280;59097;46.858;18.632;2023-03-26T11:45:54;99662.66;;;17.66;36.01
71306;BME280;59097;46.858;18.632;2023-03-26T11:48:42;99652.50;;;17.68;36.08
71306;BME280;59097;46.858;18.632;2023-03-26T11:51:22;99659.13;;;17.60;35.40
71306;BME280;59097;46.858;18.632;2023-03-26T11:53:52;99645.16;;;17.36;34.82
71306;BME280;59097;46.858;18.632;2023-03-26T12:02:30;99625.72;;;17.73;34.52
71306;BME280;59097;46.858;18.632;2023-03-26T12:05:14;99617.47;;;17.79;36.13
71306;BME280;59097;46.858;18.632;2023-03-26T12:07:49;99607.91;;;17.13;34.06
71306;BME280;59097;46.858;18.632;2023-03-26T12:10:32;99591.59;;;17.41;34.71
71306;BME280;59097;46.858;18.632;2023-03-26T12:13:24;99589.37;;;17.55;34.05
71306;BME280;59097;46.858;18.632;2023-03-26T12:15:57;99591.00;;;17.34;34.88
71306;BME280;59097;46.858;18.632;2023-03-26T12:18:27;99577.91;;;17.11;33.71
71306;BME280;59097;46.858;18.632;2023-03-26T12:21:11;99581.16;;;17.40;34.67
71306;BME280;59097;46.858;18.632;2023-03-26T12:23:56;99578.19;;;17.68;33.82
71306;BME280;59097;46.858;18.632;2023-03-26T12:26:44;99570.50;;;17.77;33.66
71306;BME280;59097;46.858;18.632;2023-03-26T12:29:16;99556.53;;;17.75;32.36
71306;BME280;59097;46.858;18.632;2023-03-26T12:31:50;99552.25;;;17.79;32.91
71306;BME280;59097;46.858;18.632;2023-03-26T12:34:20;99544.06;;;17.90;33.90
71306;BME280;59097;46.858;18.632;2023-03-26T12:36:58;99540.19;;;18.13;33.58
71306;BME280;59097;46.858;18.632;2023-03-26T12:42:27;99530.25;;;17.45;33.50
71306;BME280;59097;46.858;18.632;2023-03-26T12:45:20;99513.00;;;17.63;34.44
71306;BME280;59097;46.858;18.632;2023-03-26T12:47:51;99508.78;;;17.72;31.50
71306;BME280;59097;46.858;18.632;2023-03-26T12:51:05;99512.87;;;17.84;33.06
71306;BME280;59097;46.858;18.632;2023-03-26T12:53:42;99507.69;;;17.68;33.46
71306;BME280;59097;46.858;18.632;2023-03-26T12:56:36;99486.75;;;17.38;33.03
71306;BME280;59097;46.858;18.632;2023-03-26T12:59:36;99505.47;;;17.59;33.48
71306;BME280;59097;46.858;18.632;2023-03-26T13:04:46;99493.62;;;17.24;34.17
71306;BME280;59097;46.858;18.632;2023-03-26T13:21:33;99475.28;;;16.41;37.05
71306;BME280;59097;46.858;18.632;2023-03-26T13:24:30;99471.38;;;16.70;36.74
71306;BME280;59097;46.858;18.632;2023-03-26T13:27:11;99465.56;;;16.78;36.47
71306;BME280;59097;46.858;18.632;2023-03-26T13:38:04;99445.44;;;17.02;36.23
71306;BME280;59097;46.858;18.632;2023-03-26T13:48:30;99441.12;;;16.96;36.85
71306;BME280;59097;46.858;18.632;2023-03-26T13:51:11;99404.91;;;16.88;36.98
71306;BME280;59097;46.858;18.632;2023-03-26T13:53:51;99434.09;;;16.90;36.26
71306;BME280;59097;46.858;18.632;2023-03-26T13:56:25;99431.16;;;16.91;36.70
71306;BME280;59097;46.858;18.632;2023-03-26T13:59:04;99425.91;;;17.02;37.94
71306;BME280;59097;46.858;18.632;2023-03-26T14:01:39;99420.66;;;16.85;37.22
71306;BME280;59097;46.858;18.632;2023-03-26T14:04:38;99415.06;;;16.91;36.33
71306;BME280;59097;46.858;18.632;2023-03-26T14:09:44;99398.69;;;16.83;34.02
71306;BME280;59097;46.858;18.632;2023-03-26T14:12:28;99395.81;;;16.94;35.58
71306;BME280;59097;46.858;18.632;2023-03-26T14:15:04;99392.31;;;16.62;35.70
71306;BME280;59097;46.858;18.632;2023-03-26T14:18:02;99395.00;;;16.62;36.92
71306;BME280;59097;46.858;18.632;2023-03-26T14:35:33;99367.44;;;16.40;37.71
71306;BME280;59097;46.858;18.632;2023-03-26T14:41:28;99360.16;;;16.09;39.40
71306;BME280;59097;46.858;18.632;2023-03-26T14:49:43;99349.38;;;15.82;41.47
71306;BME280;59097;46.858;18.632;2023-03-26T14:55:22;99353.91;;;15.82;39.36
71306;BME280;59097;46.858;18.632;2023-03-26T15:12:32;99319.72;;;15.62;40.75
71306;BME280;59097;46.858;18.632;2023-03-26T15:35:18;99282.19;;;15.52;42.07
71306;BME280;59097;46.858;18.632;2023-03-26T15:43:22;99268.81;;;15.52;42.66
71306;BME280;59097;46.858;18.632;2023-03-26T15:48:55;99259.59;;;15.43;42.86
71306;BME280;59097;46.858;18.632;2023-03-26T15:58:14;99256.63;;;15.01;44.79
71306;BME280;59097;46.858;18.632;2023-03-26T16:06:52;99252.56;;;14.60;45.32
71306;BME280;59097;46.858;18.632;2023-03-26T16:14:47;99235.06;;;14.36;46.44
71306;BME280;59097;46.858;18.632;2023-03-26T16:25:54;99215.59;;;14.52;45.30
71306;BME280;59097;46.858;18.632;2023-03-26T16:36:41;99215.06;;;13.88;47.55
71306;BME280;59097;46.858;18.632;2023-03-26T16:39:49;99209.44;;;13.73;48.33
71306;BME280;59097;46.858;18.632;2023-03-26T16:42:28;99201.63;;;13.55;49.26
71306;BME280;59097;46.858;18.632;2023-03-26T16:47:39;99193.66;;;13.55;48.79
71306;BME280;59097;46.858;18.632;2023-03-26T16:50:31;99190.53;;;13.47;49.78
71306;BME280;59097;46.858;18.632;2023-03-26T16:53:22;99187.78;;;13.42;49.82
71306;BME280;59097;46.858;18.632;2023-03-26T16:56:06;99175.19;;;13.37;50.35
71306;BME280;59097;46.858;18.632;2023-03-26T17:04:09;99173.00;;;13.34;49.91
71306;BME280;59097;46.858;18.632;2023-03-26T17:10:05;99168.38;;;13.30;50.06
71306;BME280;59097;46.858;18.632;2023-03-26T17:12:49;99168.72;;;13.33;49.81
71306;BME280;59097;46.858;18.632;2023-03-26T17:21:20;99162.72;;;13.26;49.89
71306;BME280;59097;46.858;18.632;2023-03-26T17:23:50;99160.19;;;13.19;49.93
71306;BME280;59097;46.858;18.632;2023-03-26T17:26:44;99164.59;;;13.14;51.21
71306;BME280;59097;46.858;18.632;2023-03-26T17:29:24;99167.16;;;13.09;50.11
71306;BME280;59097;46.858;18.632;2023-03-26T17:32:04;99161.38;;;13.00;51.01
71306;BME280;59097;46.858;18.632;2023-03-26T17:44:55;99161.28;;;12.95;51.47
71306;BME280;59097;46.858;18.632;2023-03-26T17:47:30;99139.44;;;12.82;52.26
71306;BME280;59097;46.858;18.632;2023-03-26T17:50:10;99150.41;;;12.97;51.31
71306;BME280;59097;46.858;18.632;2023-03-26T17:55:36;99156.44;;;12.92;51.89
71306;BME280;59097;46.858;18.632;2023-03-26T18:00:57;99154.56;;;12.93;52.07
71306;BME280;59097;46.858;18.632;2023-03-26T18:03:35;99145.53;;;12.94;52.01
71306;BME280;59097;46.858;18.632;2023-03-26T18:06:13;99135.59;;;12.89;51.40
71306;BME280;59097;46.858;18.632;2023-03-26T18:08:57;99128.91;;;12.87;50.66
71306;BME280;59097;46.858;18.632;2023-03-26T18:17:56;99152.12;;;13.03;51.42
71306;BME280;59097;46.858;18.632;2023-03-26T18:20:30;99144.72;;;12.93;51.59
71306;BME280;59097;46.858;18.632;2023-03-26T18:23:08;99144.19;;;12.80;53.23
71306;BME280;59097;46.858;18.632;2023-03-26T18:25:37;99137.94;;;12.74;53.69
71306;BME280;59097;46.858;18.632;2023-03-26T18:28:12;99133.44;;;12.63;54.02
71306;BME280;59097;46.858;18.632;2023-03-26T18:30:46;99097.28;;;12.39;53.66
71306;BME280;59097;46.858;18.632;2023-03-26T18:33:15;99137.16;;;12.62;54.12
71306;BME280;59097;46.858;18.632;2023-03-26T18:35:49;99101.78;;;12.38;55.00
71306;BME280;59097;46.858;18.632;2023-03-26T18:38:21;99134.59;;;12.55;54.90
71306;BME280;59097;46.858;18.632;2023-03-26T18:41:06;99139.00;;;12.50;55.37
71306;BME280;59097;46.858;18.632;2023-03-26T18:43:35;99120.28;;;12.45;55.24
71306;BME280;59097;46.858;18.632;2023-03-26T18:46:13;99110.94;;;12.31;55.23
71306;BME280;59097;46.858;18.632;2023-03-26T18:48:42;99133.00;;;12.43;55.22
71306;BME280;59097;46.858;18.632;2023-03-26T18:51:11;99128.38;;;12.38;55.34
71306;BME280;59097;46.858;18.632;2023-03-26T18:53:48;99128.97;;;12.40;55.70
71306;BME280;59097;46.858;18.632;2023-03-26T18:56:25;99128.12;;;12.40;55.16
71306;BME280;59097;46.858;18.632;2023-03-26T18:58:56;99112.66;;;12.37;55.14
71306;BME280;59097;46.858;18.632;2023-03-26T19:01:27;99123.19;;;12.43;55.11
71306;BME280;59097;46.858;18.632;2023-03-26T19:04:03;99122.50;;;12.36;56.09
71306;BME280;59097;46.858;18.632;2023-03-26T19:06:38;99127.22;;;12.34;56.54
71306;BME280;59097;46.858;18.632;2023-03-26T19:09:07;99126.19;;;12.24;56.89
71306;BME280;59097;46.858;18.632;2023-03-26T19:12:12;99128.50;;;12.20;57.07
71306;BME280;59097;46.858;18.632;2023-03-26T19:15:04;99106.63;;;12.07;59.15
71306;BME280;59097;46.858;18.632;2023-03-26T19:17:42;99124.66;;;12.05;60.21
71306;BME280;59097;46.858;18.632;2023-03-26T19:20:34;99124.53;;;11.99;59.76
71306;BME280;59097;46.858;18.632;2023-03-26T19:23:04;99114.72;;;12.00;59.09
71306;BME280;59097;46.858;18.632;2023-03-26T19:25:41;99109.75;;;12.04;58.88
71306;BME280;59097;46.858;18.632;2023-03-26T19:28:26;99109.09;;;12.08;57.78